WetterOnline ( http://www.wetteronline.de )

Wetter aktuell Kiel

Aktuelles Wetter: Kiel/Holtenau (27m)

6-stündlich | Neueste Meldungen
Ortszeit Temperatur Wetter
Mo, 18.06. 8:00 15.8° C wolkenlos
Mo, 18.06. 2:00 13.7° C bedeckt
So, 17.06. 20:00 17.2° C wolkig
So, 17.06. 14:00 18.4° C bewölkt
So, 17.06. 8:00 16.6° C wolkenlos
So, 17.06. 2:00 15.6° C leichter Regen
Sa, 16.06. 20:00 20.4° C bewölkt
Sa, 16.06. 14:00 18.3° C Regen
Ortszeit Temperatur Wetter
Mo, 18.06. 9:30 17.1° C bewölkt
Mo, 18.06. 9:20 17.1° C bewölkt
Mo, 18.06. 9:10 17.6° C bewölkt
Mo, 18.06. 9:00 17.0° C leicht bewölkt
Mo, 18.06. 8:50 17.0° C leicht bewölkt
Mo, 18.06. 8:40 17.2° C leicht bewölkt
Mo, 18.06. 8:30 16.2° C wolkenlos
Mo, 18.06. 8:00 15.8° C wolkenlos
Mo, 18.06. 7:30 15.3° C wolkenlos
Mo, 18.06. 7:00 14.6° C fast wolkenlos
Mo, 18.06. 6:30 13.7° C bewölkt
Ortszeit Relative Feuchte Sichtweite
Mo, 18.06. 8:00 76% 10 km
Mo, 18.06. 2:00 82% 24 km
So, 17.06. 20:00 56% 65 km
So, 17.06. 14:00 64% 20 km
So, 17.06. 8:00 84% 5.0 km
So, 17.06. 2:00 92% 3.8 km
Sa, 16.06. 20:00 70% 18 km
Sa, 16.06. 14:00 84% 8 km
Ortszeit Relative Feuchte Sichtweite
Mo, 18.06. 9:30 67% 35 km
Mo, 18.06. 9:20 67% -
Mo, 18.06. 9:10 67% -
Mo, 18.06. 9:00 69% 14 km
Mo, 18.06. 8:50 69% -
Mo, 18.06. 8:40 69% -
Mo, 18.06. 8:30 71% 14 km
Mo, 18.06. 8:00 76% 10 km
Mo, 18.06. 7:30 78% 11 km
Mo, 18.06. 7:00 81% 22 km
Mo, 18.06. 6:30 87% 15 km
Ortszeit Niederschlagsmenge Niederschlagsart
Mo, 18.06. 8:00 0.1 l/m2 in 12 Std. Regen
Mo, 18.06. 2:00 0.0 l/m2 in 6 Std. -
So, 17.06. 20:00 0.4 l/m2 in 12 Std. Regen
So, 17.06. 14:00 0.1 l/m2 in 6 Std. Regen
So, 17.06. 8:00 1 l/m2 in 12 Std. Regen
So, 17.06. 2:00 0.1 l/m2 in 6 Std. Regen
Sa, 16.06. 20:00 0.1 l/m2 in 3 Std. Regen
Sa, 16.06. 14:00 10 l/m2 in 3 Std. Regenschauer
Ortszeit Niederschlagsmenge Niederschlagsart
Mo, 18.06. 9:30 0.0 l/m2 in 1 Std. -
Mo, 18.06. 9:20 keine Meldung -
Mo, 18.06. 9:10 keine Meldung -
Mo, 18.06. 9:00 0.0 l/m2 in 1 Std. -
Mo, 18.06. 8:50 keine Meldung -
Mo, 18.06. 8:40 keine Meldung -
Mo, 18.06. 8:30 0.0 l/m2 in 1 Std. -
Mo, 18.06. 8:00 0.0 l/m2 in 1 Std. Regen
Mo, 18.06. 7:30 0.0 l/m2 in 1 Std. -
Mo, 18.06. 7:00 0.0 l/m2 in 1 Std. -
Mo, 18.06. 6:30 0.0 l/m2 in 1 Std. -
Ortszeit Stärke Spitze Richtung
km/h Bft. km/h Grad Sektor
Mo, 18.06. 8:00 11 2 22 230° SW
Mo, 18.06. 2:00 7 2 25 220° SW
So, 17.06. 20:00 17 3 39 260° W
So, 17.06. 14:00 15 3 43 250° W
So, 17.06. 8:00 7 2 22 230° SW
So, 17.06. 2:00 6 1 19 270° W
Sa, 16.06. 20:00 7 2 35 270° W
Sa, 16.06. 14:00 6 1 30 140° SO
Ortszeit Stärke Spitze Richtung
km/h Bft. km/h Grad Sektor
Mo, 18.06. 9:30 13 3 24 230° SW
Mo, 18.06. 9:20 13 3 - 230° SW
Mo, 18.06. 9:10 11 2 - 230° SW
Mo, 18.06. 9:00 13 3 24 230° SW
Mo, 18.06. 8:50 13 3 - 230° SW
Mo, 18.06. 8:40 11 2 - 230° SW
Mo, 18.06. 8:30 13 3 24 230° SW
Mo, 18.06. 8:00 11 2 22 230° SW
Mo, 18.06. 7:30 9 2 20 210° SW
Mo, 18.06. 7:00 7 2 18 220° SW
Mo, 18.06. 6:30 9 2 19 220° SW
Ortszeit Untergrenze Bedeckung Gattung
total tief tief mittel hoch
Mo, 18.06. 8:00 - 0/8 0/8 - - -
Mo, 18.06. 2:00 2100 m 8/8 8/8 - - -
So, 17.06. 20:00 1800 m 8/8 1/8 - - -
So, 17.06. 14:00 1410 m 7/8 8/8 - - -
So, 17.06. 8:00 - 0/8 0/8 - - -
So, 17.06. 2:00 2100 m 7/8 7/8 - - -
Sa, 16.06. 20:00 3300 m 7/8 7/8 - - -
Sa, 16.06. 14:00 690 m 8/8 8/8 - - -
Ortszeit Bedeckungsgrad in Achtel und Wolkenuntergrenze
Mo, 18.06. 9:30 2(660m) 4(810m) 7(2100m)
Mo, 18.06. 9:20 2(660m) 4(810m) 7(2100m)
Mo, 18.06. 9:10 3(690m) 7(2100m)
Mo, 18.06. 9:00 3(660m) 4(780m) 6(2100m)
Mo, 18.06. 8:50 3(660m)
Mo, 18.06. 8:40 2(600m)
Mo, 18.06. 8:30 keine Wolken
Mo, 18.06. 8:00 keine Wolken
Mo, 18.06. 7:30 keine Wolken
Mo, 18.06. 7:00 1(1500m)
Mo, 18.06. 6:30 1(870m) 7(1500m)
Ortszeit Luftdruck NN (hPa) Tendenz (hPa in 3 Std.)
Mo, 18.06. 8:00 1018 + 0,1
Mo, 18.06. 2:00 1018 + 0,7
So, 17.06. 20:00 1016 + 0,8
So, 17.06. 14:00 1014 + 0,9
So, 17.06. 8:00 1013 - 0,1
So, 17.06. 2:00 1013 - 0,4
Sa, 16.06. 20:00 1013 + 0,1
Sa, 16.06. 14:00 1014 - 1,1
Ortszeit Luftdruck NN (hPa) Tendenz (hPa in 3 Std.)
Mo, 18.06. 9:30 1018 - 0,2
Mo, 18.06. 9:20 1018 keine Meldung
Mo, 18.06. 9:10 1018 keine Meldung
Mo, 18.06. 9:00 1018 - 0,3
Mo, 18.06. 8:50 1018 keine Meldung
Mo, 18.06. 8:40 1018 keine Meldung
Mo, 18.06. 8:30 1018 - 0,1
Mo, 18.06. 8:00 1018 + 0,1
Mo, 18.06. 7:30 1018 - 0,1
Mo, 18.06. 7:00 1018 + 0,4
Mo, 18.06. 6:30 1018 + 0,1
Ortszeit Schneehöhe (cm)
Mo, 18.06. 8:00 -
Mo, 18.06. 2:00 -
So, 17.06. 20:00 -
So, 17.06. 14:00 -
So, 17.06. 8:00 -
So, 17.06. 2:00 -
Sa, 16.06. 20:00 -
Sa, 16.06. 14:00 -
Ortszeit Schneehöhe (cm)
Mo, 18.06. 9:30 -
Mo, 18.06. 9:20 -
Mo, 18.06. 9:10 -
Mo, 18.06. 9:00 -
Mo, 18.06. 8:50 -
Mo, 18.06. 8:40 -
Mo, 18.06. 8:30 -
Mo, 18.06. 8:00 -
Mo, 18.06. 7:30 -
Mo, 18.06. 7:00 -
Mo, 18.06. 6:30 -
Link zu dieser Seite / Seite empfehlen

Das Wetter in ...